sensor_id;sensor_type;location;lat;lon;timestamp;P1;durP1;ratioP1;P2;durP2;ratioP2
20038;SDS011;21737;42.868;25.320;2023-08-31T00:02:01;22.63;;;15.20;;
20038;SDS011;21737;42.868;25.320;2023-08-31T00:05:03;17.37;;;14.83;;
20038;SDS011;21737;42.868;25.320;2023-08-31T00:08:13;17.40;;;15.47;;
20038;SDS011;21737;42.868;25.320;2023-08-31T00:11:17;24.20;;;15.60;;
20038;SDS011;21737;42.868;25.320;2023-08-31T00:14:19;18.67;;;15.00;;
20038;SDS011;21737;42.868;25.320;2023-08-31T00:17:21;22.40;;;15.83;;
20038;SDS011;21737;42.868;25.320;2023-08-31T00:20:26;19.30;;;15.37;;
20038;SDS011;21737;42.868;25.320;2023-08-31T00:23:32;18.50;;;14.73;;
20038;SDS011;21737;42.868;25.320;2023-08-31T00:26:34;20.47;;;15.20;;
20038;SDS011;21737;42.868;25.320;2023-08-31T00:29:37;21.63;;;15.87;;
20038;SDS011;21737;42.868;25.320;2023-08-31T00:32:41;18.83;;;14.03;;
20038;SDS011;21737;42.868;25.320;2023-08-31T00:35:45;22.17;;;14.87;;
20038;SDS011;21737;42.868;25.320;2023-08-31T00:38:50;20.93;;;14.60;;
20038;SDS011;21737;42.868;25.320;2023-08-31T00:41:53;22.50;;;15.23;;
20038;SDS011;21737;42.868;25.320;2023-08-31T00:44:55;21.77;;;16.10;;
20038;SDS011;21737;42.868;25.320;2023-08-31T00:47:57;22.97;;;15.90;;
20038;SDS011;21737;42.868;25.320;2023-08-31T00:51:08;19.33;;;15.53;;
20038;SDS011;21737;42.868;25.320;2023-08-31T00:54:12;20.10;;;15.47;;
20038;SDS011;21737;42.868;25.320;2023-08-31T00:57:16;19.17;;;15.70;;
20038;SDS011;21737;42.868;25.320;2023-08-31T01:14:00;19.57;;;16.50;;
20038;SDS011;21737;42.868;25.320;2023-08-31T01:17:05;17.83;;;15.80;;
20038;SDS011;21737;42.868;25.320;2023-08-31T01:20:09;19.93;;;16.17;;
20038;SDS011;21737;42.868;25.320;2023-08-31T01:23:16;21.23;;;16.70;;
20038;SDS011;21737;42.868;25.320;2023-08-31T01:26:18;18.73;;;16.03;;
20038;SDS011;21737;42.868;25.320;2023-08-31T01:29:24;19.47;;;14.93;;
20038;SDS011;21737;42.868;25.320;2023-08-31T01:32:30;20.70;;;15.30;;
20038;SDS011;21737;42.868;25.320;2023-08-31T01:35:36;18.33;;;16.00;;
20038;SDS011;21737;42.868;25.320;2023-08-31T01:38:50;18.80;;;16.00;;
20038;SDS011;21737;42.868;25.320;2023-08-31T01:41:58;18.97;;;15.67;;
20038;SDS011;21737;42.868;25.320;2023-08-31T01:48:38;26.33;;;15.97;;
20038;SDS011;21737;42.868;25.320;2023-08-31T01:51:46;22.23;;;15.87;;
20038;SDS011;21737;42.868;25.320;2023-08-31T01:54:50;21.20;;;16.00;;
20038;SDS011;21737;42.868;25.320;2023-08-31T01:57:52;21.33;;;15.73;;
20038;SDS011;21737;42.868;25.320;2023-08-31T02:00:59;25.43;;;15.73;;
20038;SDS011;21737;42.868;25.320;2023-08-31T02:04:02;19.93;;;15.60;;
20038;SDS011;21737;42.868;25.320;2023-08-31T02:07:07;16.80;;;15.00;;
20038;SDS011;21737;42.868;25.320;2023-08-31T02:10:09;21.20;;;15.43;;
20038;SDS011;21737;42.868;25.320;2023-08-31T02:16:55;19.53;;;14.87;;
20038;SDS011;21737;42.868;25.320;2023-08-31T02:26:44;21.40;;;15.57;;
20038;SDS011;21737;42.868;25.320;2023-08-31T02:29:48;17.70;;;15.17;;
20038;SDS011;21737;42.868;25.320;2023-08-31T02:32:52;22.93;;;15.83;;
20038;SDS011;21737;42.868;25.320;2023-08-31T02:35:54;21.80;;;14.87;;
20038;SDS011;21737;42.868;25.320;2023-08-31T02:38:59;17.20;;;14.57;;
20038;SDS011;21737;42.868;25.320;2023-08-31T02:42:01;20.77;;;14.37;;
20038;SDS011;21737;42.868;25.320;2023-08-31T02:45:09;15.87;;;14.20;;
20038;SDS011;21737;42.868;25.320;2023-08-31T02:48:14;19.67;;;15.37;;
20038;SDS011;21737;42.868;25.320;2023-08-31T02:51:16;24.27;;;15.57;;
20038;SDS011;21737;42.868;25.320;2023-08-31T02:54:18;21.90;;;15.40;;
20038;SDS011;21737;42.868;25.320;2023-08-31T02:57:21;23.73;;;15.73;;
20038;SDS011;21737;42.868;25.320;2023-08-31T03:00:24;20.70;;;14.57;;
20038;SDS011;21737;42.868;25.320;2023-08-31T03:06:56;23.97;;;15.60;;
20038;SDS011;21737;42.868;25.320;2023-08-31T03:09:58;19.53;;;15.03;;
20038;SDS011;21737;42.868;25.320;2023-08-31T03:13:03;17.80;;;15.00;;
20038;SDS011;21737;42.868;25.320;2023-08-31T03:16:06;23.63;;;15.90;;
20038;SDS011;21737;42.868;25.320;2023-08-31T03:19:26;25.17;;;18.57;;
20038;SDS011;21737;42.868;25.320;2023-08-31T03:22:28;24.43;;;14.63;;
20038;SDS011;21737;42.868;25.320;2023-08-31T03:25:49;19.03;;;15.93;;
20038;SDS011;21737;42.868;25.320;2023-08-31T03:28:51;23.03;;;15.20;;
20038;SDS011;21737;42.868;25.320;2023-08-31T03:31:56;22.00;;;16.10;;
20038;SDS011;21737;42.868;25.320;2023-08-31T03:34:59;20.83;;;15.77;;
20038;SDS011;21737;42.868;25.320;2023-08-31T03:38:01;18.83;;;14.40;;
20038;SDS011;21737;42.868;25.320;2023-08-31T03:41:04;18.10;;;15.07;;
20038;SDS011;21737;42.868;25.320;2023-08-31T03:44:14;20.73;;;14.97;;
20038;SDS011;21737;42.868;25.320;2023-08-31T03:47:16;20.70;;;15.40;;
20038;SDS011;21737;42.868;25.320;2023-08-31T03:50:18;19.13;;;15.10;;
20038;SDS011;21737;42.868;25.320;2023-08-31T03:53:20;18.37;;;14.30;;
20038;SDS011;21737;42.868;25.320;2023-08-31T03:56:26;17.20;;;14.87;;
20038;SDS011;21737;42.868;25.320;2023-08-31T03:59:29;20.47;;;15.43;;
20038;SDS011;21737;42.868;25.320;2023-08-31T04:02:37;22.57;;;15.47;;
20038;SDS011;21737;42.868;25.320;2023-08-31T04:05:40;18.53;;;15.43;;
20038;SDS011;21737;42.868;25.320;2023-08-31T04:08:51;18.90;;;16.03;;
20038;SDS011;21737;42.868;25.320;2023-08-31T04:11:53;20.70;;;15.43;;
20038;SDS011;21737;42.868;25.320;2023-08-31T04:14:56;21.53;;;15.07;;
20038;SDS011;21737;42.868;25.320;2023-08-31T04:18:02;23.43;;;15.73;;
20038;SDS011;21737;42.868;25.320;2023-08-31T04:21:07;18.73;;;14.80;;
20038;SDS011;21737;42.868;25.320;2023-08-31T04:24:11;20.83;;;13.63;;
20038;SDS011;21737;42.868;25.320;2023-08-31T04:27:13;19.93;;;14.50;;
20038;SDS011;21737;42.868;25.320;2023-08-31T04:30:16;16.33;;;13.30;;
20038;SDS011;21737;42.868;25.320;2023-08-31T04:33:19;16.63;;;13.53;;
20038;SDS011;21737;42.868;25.320;2023-08-31T04:36:22;17.33;;;12.70;;
20038;SDS011;21737;42.868;25.320;2023-08-31T04:39:26;18.47;;;13.67;;
20038;SDS011;21737;42.868;25.320;2023-08-31T04:42:29;19.00;;;13.37;;
20038;SDS011;21737;42.868;25.320;2023-08-31T04:45:31;18.60;;;12.67;;
20038;SDS011;21737;42.868;25.320;2023-08-31T04:48:34;16.63;;;13.00;;
20038;SDS011;21737;42.868;25.320;2023-08-31T04:51:36;16.37;;;13.47;;
20038;SDS011;21737;42.868;25.320;2023-08-31T04:54:43;16.47;;;12.80;;
20038;SDS011;21737;42.868;25.320;2023-08-31T04:57:46;18.80;;;13.10;;
20038;SDS011;21737;42.868;25.320;2023-08-31T05:00:48;21.30;;;12.13;;
20038;SDS011;21737;42.868;25.320;2023-08-31T05:03:50;18.60;;;13.13;;
20038;SDS011;21737;42.868;25.320;2023-08-31T05:06:53;16.97;;;12.80;;
20038;SDS011;21737;42.868;25.320;2023-08-31T05:09:55;19.67;;;13.20;;
20038;SDS011;21737;42.868;25.320;2023-08-31T05:12:57;18.67;;;12.50;;
20038;SDS011;21737;42.868;25.320;2023-08-31T05:16:00;22.07;;;12.60;;
20038;SDS011;21737;42.868;25.320;2023-08-31T05:19:06;17.43;;;11.90;;
20038;SDS011;21737;42.868;25.320;2023-08-31T05:22:11;17.90;;;11.17;;
20038;SDS011;21737;42.868;25.320;2023-08-31T05:25:13;15.37;;;11.60;;
20038;SDS011;21737;42.868;25.320;2023-08-31T05:28:16;15.87;;;12.47;;
20038;SDS011;21737;42.868;25.320;2023-08-31T05:31:19;19.87;;;12.47;;
20038;SDS011;21737;42.868;25.320;2023-08-31T05:34:28;15.50;;;11.87;;
20038;SDS011;21737;42.868;25.320;2023-08-31T05:37:32;21.23;;;12.70;;
20038;SDS011;21737;42.868;25.320;2023-08-31T05:40:35;15.63;;;12.43;;
20038;SDS011;21737;42.868;25.320;2023-08-31T05:43:51;15.30;;;11.53;;
20038;SDS011;21737;42.868;25.320;2023-08-31T05:47:00;14.53;;;11.33;;
20038;SDS011;21737;42.868;25.320;2023-08-31T05:50:05;20.97;;;14.53;;
20038;SDS011;21737;42.868;25.320;2023-08-31T05:53:13;19.43;;;12.50;;
20038;SDS011;21737;42.868;25.320;2023-08-31T05:56:20;24.43;;;13.40;;
20038;SDS011;21737;42.868;25.320;2023-08-31T05:59:23;20.00;;;14.00;;
20038;SDS011;21737;42.868;25.320;2023-08-31T06:02:45;17.70;;;11.03;;
20038;SDS011;21737;42.868;25.320;2023-08-31T06:05:50;18.60;;;9.30;;
20038;SDS011;21737;42.868;25.320;2023-08-31T06:08:56;10.87;;;8.47;;
20038;SDS011;21737;42.868;25.320;2023-08-31T06:12:00;11.43;;;8.33;;
20038;SDS011;21737;42.868;25.320;2023-08-31T06:15:02;9.80;;;8.10;;
20038;SDS011;21737;42.868;25.320;2023-08-31T06:21:27;10.50;;;7.95;;
20038;SDS011;21737;42.868;25.320;2023-08-31T06:24:31;16.92;;;8.27;;
20038;SDS011;21737;42.868;25.320;2023-08-31T06:27:37;19.60;;;11.60;;
20038;SDS011;21737;42.868;25.320;2023-08-31T06:30:41;10.88;;;7.40;;
20038;SDS011;21737;42.868;25.320;2023-08-31T06:33:50;14.68;;;8.52;;
20038;SDS011;21737;42.868;25.320;2023-08-31T06:36:52;8.93;;;8.02;;
20038;SDS011;21737;42.868;25.320;2023-08-31T06:39:56;15.57;;;9.52;;
20038;SDS011;21737;42.868;25.320;2023-08-31T06:46:05;13.18;;;9.43;;
20038;SDS011;21737;42.868;25.320;2023-08-31T06:49:25;9.77;;;8.77;;
20038;SDS011;21737;42.868;25.320;2023-08-31T06:52:29;17.15;;;10.23;;
20038;SDS011;21737;42.868;25.320;2023-08-31T06:55:33;12.90;;;10.50;;
20038;SDS011;21737;42.868;25.320;2023-08-31T06:58:37;16.20;;;9.87;;
20038;SDS011;21737;42.868;25.320;2023-08-31T07:01:42;14.40;;;9.45;;
20038;SDS011;21737;42.868;25.320;2023-08-31T07:04:48;16.20;;;10.43;;
20038;SDS011;21737;42.868;25.320;2023-08-31T07:07:58;15.50;;;9.70;;
20038;SDS011;21737;42.868;25.320;2023-08-31T07:11:02;13.63;;;10.00;;
20038;SDS011;21737;42.868;25.320;2023-08-31T07:14:09;16.07;;;12.17;;
20038;SDS011;21737;42.868;25.320;2023-08-31T07:17:11;14.53;;;10.13;;
20038;SDS011;21737;42.868;25.320;2023-08-31T07:20:14;13.93;;;9.73;;
20038;SDS011;21737;42.868;25.320;2023-08-31T07:23:17;18.13;;;10.77;;
20038;SDS011;21737;42.868;25.320;2023-08-31T07:26:20;17.63;;;10.67;;
20038;SDS011;21737;42.868;25.320;2023-08-31T07:29:23;11.53;;;10.10;;
20038;SDS011;21737;42.868;25.320;2023-08-31T07:32:28;14.07;;;10.60;;
20038;SDS011;21737;42.868;25.320;2023-08-31T07:35:30;11.83;;;9.63;;
20038;SDS011;21737;42.868;25.320;2023-08-31T07:38:37;13.20;;;10.07;;
20038;SDS011;21737;42.868;25.320;2023-08-31T07:41:40;11.27;;;9.13;;
20038;SDS011;21737;42.868;25.320;2023-08-31T07:44:44;13.57;;;8.90;;
20038;SDS011;21737;42.868;25.320;2023-08-31T07:47:55;11.73;;;8.77;;
20038;SDS011;21737;42.868;25.320;2023-08-31T07:50:59;10.82;;;9.15;;
20038;SDS011;21737;42.868;25.320;2023-08-31T07:54:08;11.25;;;9.35;;
20038;SDS011;21737;42.868;25.320;2023-08-31T08:00:39;15.77;;;10.20;;
20038;SDS011;21737;42.868;25.320;2023-08-31T08:03:43;17.45;;;10.55;;
20038;SDS011;21737;42.868;25.320;2023-08-31T08:06:45;17.87;;;10.17;;
20038;SDS011;21737;42.868;25.320;2023-08-31T08:09:49;13.93;;;11.30;;
20038;SDS011;21737;42.868;25.320;2023-08-31T08:12:52;13.73;;;11.07;;
20038;SDS011;21737;42.868;25.320;2023-08-31T08:16:02;13.70;;;9.33;;
20038;SDS011;21737;42.868;25.320;2023-08-31T08:19:06;14.33;;;10.33;;
20038;SDS011;21737;42.868;25.320;2023-08-31T08:22:08;13.17;;;9.70;;
20038;SDS011;21737;42.868;25.320;2023-08-31T08:25:11;12.95;;;9.85;;
20038;SDS011;21737;42.868;25.320;2023-08-31T08:28:16;12.65;;;8.85;;
20038;SDS011;21737;42.868;25.320;2023-08-31T08:31:18;11.75;;;9.07;;
20038;SDS011;21737;42.868;25.320;2023-08-31T08:34:31;14.32;;;8.77;;
20038;SDS011;21737;42.868;25.320;2023-08-31T08:37:34;10.65;;;8.20;;
20038;SDS011;21737;42.868;25.320;2023-08-31T08:40:39;8.85;;;7.95;;
20038;SDS011;21737;42.868;25.320;2023-08-31T08:43:42;9.48;;;8.48;;
20038;SDS011;21737;42.868;25.320;2023-08-31T08:46:46;12.15;;;7.63;;
20038;SDS011;21737;42.868;25.320;2023-08-31T08:53:28;8.35;;;6.50;;
20038;SDS011;21737;42.868;25.320;2023-08-31T08:56:32;7.13;;;6.07;;
20038;SDS011;21737;42.868;25.320;2023-08-31T08:59:37;8.77;;;6.03;;
20038;SDS011;21737;42.868;25.320;2023-08-31T09:05:55;6.20;;;5.60;;
20038;SDS011;21737;42.868;25.320;2023-08-31T09:12:06;8.15;;;6.90;;
20038;SDS011;21737;42.868;25.320;2023-08-31T09:15:11;9.43;;;6.60;;
20038;SDS011;21737;42.868;25.320;2023-08-31T09:18:25;9.10;;;7.97;;
20038;SDS011;21737;42.868;25.320;2023-08-31T09:21:35;10.73;;;6.53;;
20038;SDS011;21737;42.868;25.320;2023-08-31T09:24:42;9.07;;;8.07;;
20038;SDS011;21737;42.868;25.320;2023-08-31T09:27:49;9.18;;;5.60;;
20038;SDS011;21737;42.868;25.320;2023-08-31T09:30:52;16.02;;;6.43;;
20038;SDS011;21737;42.868;25.320;2023-08-31T09:33:57;11.38;;;7.65;;
20038;SDS011;21737;42.868;25.320;2023-08-31T09:40:10;7.63;;;5.53;;
20038;SDS011;21737;42.868;25.320;2023-08-31T09:43:24;7.03;;;5.15;;
20038;SDS011;21737;42.868;25.320;2023-08-31T09:50:06;7.60;;;5.68;;
20038;SDS011;21737;42.868;25.320;2023-08-31T09:56:23;5.82;;;3.40;;
20038;SDS011;21737;42.868;25.320;2023-08-31T09:59:29;6.22;;;3.92;;
20038;SDS011;21737;42.868;25.320;2023-08-31T10:02:32;6.43;;;3.50;;
20038;SDS011;21737;42.868;25.320;2023-08-31T10:08:47;5.00;;;3.75;;
20038;SDS011;21737;42.868;25.320;2023-08-31T10:14:59;7.30;;;3.85;;
20038;SDS011;21737;42.868;25.320;2023-08-31T10:18:05;7.38;;;4.68;;
20038;SDS011;21737;42.868;25.320;2023-08-31T10:25:21;5.80;;;4.45;;
20038;SDS011;21737;42.868;25.320;2023-08-31T10:28:16;7.10;;;3.90;;
20038;SDS011;21737;42.868;25.320;2023-08-31T10:31:27;6.38;;;4.78;;
20038;SDS011;21737;42.868;25.320;2023-08-31T10:38:14;8.32;;;3.80;;
20038;SDS011;21737;42.868;25.320;2023-08-31T10:41:32;5.90;;;3.47;;
20038;SDS011;21737;42.868;25.320;2023-08-31T10:44:41;5.72;;;3.47;;
20038;SDS011;21737;42.868;25.320;2023-08-31T10:47:46;7.88;;;3.13;;
20038;SDS011;21737;42.868;25.320;2023-08-31T10:50:50;6.78;;;3.50;;
20038;SDS011;21737;42.868;25.320;2023-08-31T10:54:09;4.97;;;3.38;;
20038;SDS011;21737;42.868;25.320;2023-08-31T10:57:13;3.90;;;3.50;;
20038;SDS011;21737;42.868;25.320;2023-08-31T11:01:05;7.50;;;4.03;;
20038;SDS011;21737;42.868;25.320;2023-08-31T11:04:00;6.10;;;4.10;;
20038;SDS011;21737;42.868;25.320;2023-08-31T11:07:17;5.30;;;4.20;;
20038;SDS011;21737;42.868;25.320;2023-08-31T11:10:24;5.78;;;4.10;;
20038;SDS011;21737;42.868;25.320;2023-08-31T11:13:31;12.70;;;6.20;;
20038;SDS011;21737;42.868;25.320;2023-08-31T11:16:37;18.33;;;6.93;;
20038;SDS011;21737;42.868;25.320;2023-08-31T11:19:41;13.53;;;6.67;;
20038;SDS011;21737;42.868;25.320;2023-08-31T11:22:49;8.93;;;6.33;;
20038;SDS011;21737;42.868;25.320;2023-08-31T11:25:52;15.93;;;8.70;;
20038;SDS011;21737;42.868;25.320;2023-08-31T11:28:56;10.30;;;6.97;;
20038;SDS011;21737;42.868;25.320;2023-08-31T11:31:58;10.97;;;7.40;;
20038;SDS011;21737;42.868;25.320;2023-08-31T11:35:07;12.27;;;8.50;;
20038;SDS011;21737;42.868;25.320;2023-08-31T11:38:10;13.23;;;7.70;;
20038;SDS011;21737;42.868;25.320;2023-08-31T11:41:14;14.93;;;7.13;;
20038;SDS011;21737;42.868;25.320;2023-08-31T11:44:18;11.17;;;7.67;;
20038;SDS011;21737;42.868;25.320;2023-08-31T11:47:21;9.77;;;7.10;;
20038;SDS011;21737;42.868;25.320;2023-08-31T11:50:31;9.53;;;6.77;;
20038;SDS011;21737;42.868;25.320;2023-08-31T11:53:33;11.57;;;6.57;;
20038;SDS011;21737;42.868;25.320;2023-08-31T11:56:54;11.13;;;7.40;;
20038;SDS011;21737;42.868;25.320;2023-08-31T12:00:00;9.63;;;6.87;;
20038;SDS011;21737;42.868;25.320;2023-08-31T12:03:08;10.33;;;7.27;;
20038;SDS011;21737;42.868;25.320;2023-08-31T12:06:15;10.70;;;7.67;;
20038;SDS011;21737;42.868;25.320;2023-08-31T12:09:32;7.83;;;6.20;;
20038;SDS011;21737;42.868;25.320;2023-08-31T12:12:34;7.53;;;6.03;;
20038;SDS011;21737;42.868;25.320;2023-08-31T12:18:59;7.57;;;6.13;;
20038;SDS011;21737;42.868;25.320;2023-08-31T12:22:02;11.90;;;6.80;;
20038;SDS011;21737;42.868;25.320;2023-08-31T12:28:38;10.27;;;5.90;;
20038;SDS011;21737;42.868;25.320;2023-08-31T12:36:01;8.73;;;5.87;;
20038;SDS011;21737;42.868;25.320;2023-08-31T12:39:06;7.20;;;5.57;;
20038;SDS011;21737;42.868;25.320;2023-08-31T12:42:11;9.13;;;5.97;;
20038;SDS011;21737;42.868;25.320;2023-08-31T12:45:24;5.93;;;5.30;;
20038;SDS011;21737;42.868;25.320;2023-08-31T12:48:33;7.33;;;5.57;;
20038;SDS011;21737;42.868;25.320;2023-08-31T12:51:37;9.47;;;5.67;;
20038;SDS011;21737;42.868;25.320;2023-08-31T12:54:41;9.70;;;6.20;;
20038;SDS011;21737;42.868;25.320;2023-08-31T12:57:45;9.77;;;6.03;;
20038;SDS011;21737;42.868;25.320;2023-08-31T13:00:48;12.43;;;8.23;;
20038;SDS011;21737;42.868;25.320;2023-08-31T13:03:53;7.50;;;6.27;;
20038;SDS011;21737;42.868;25.320;2023-08-31T13:07:08;6.30;;;5.57;;
20038;SDS011;21737;42.868;25.320;2023-08-31T13:10:11;11.13;;;6.80;;
20038;SDS011;21737;42.868;25.320;2023-08-31T13:13:17;9.07;;;6.13;;
20038;SDS011;21737;42.868;25.320;2023-08-31T13:16:22;8.73;;;5.93;;
20038;SDS011;21737;42.868;25.320;2023-08-31T13:22:34;9.87;;;6.10;;
20038;SDS011;21737;42.868;25.320;2023-08-31T13:25:38;8.37;;;6.00;;
20038;SDS011;21737;42.868;25.320;2023-08-31T13:28:41;8.00;;;6.40;;
20038;SDS011;21737;42.868;25.320;2023-08-31T13:31:48;9.20;;;6.30;;
20038;SDS011;21737;42.868;25.320;2023-08-31T13:34:51;10.00;;;6.17;;
20038;SDS011;21737;42.868;25.320;2023-08-31T13:37:57;10.63;;;6.83;;
20038;SDS011;21737;42.868;25.320;2023-08-31T13:41:00;7.87;;;6.30;;
20038;SDS011;21737;42.868;25.320;2023-08-31T13:44:03;15.03;;;11.03;;
20038;SDS011;21737;42.868;25.320;2023-08-31T13:47:07;13.67;;;7.80;;
20038;SDS011;21737;42.868;25.320;2023-08-31T13:50:22;14.93;;;7.73;;
20038;SDS011;21737;42.868;25.320;2023-08-31T13:56:52;8.60;;;6.67;;
20038;SDS011;21737;42.868;25.320;2023-08-31T14:03:13;10.77;;;8.37;;
20038;SDS011;21737;42.868;25.320;2023-08-31T14:06:17;9.03;;;7.63;;
20038;SDS011;21737;42.868;25.320;2023-08-31T14:09:22;12.17;;;8.00;;
20038;SDS011;21737;42.868;25.320;2023-08-31T14:12:25;10.70;;;7.53;;
20038;SDS011;21737;42.868;25.320;2023-08-31T14:15:32;10.37;;;8.00;;
20038;SDS011;21737;42.868;25.320;2023-08-31T14:18:35;13.73;;;8.13;;
20038;SDS011;21737;42.868;25.320;2023-08-31T14:21:39;9.53;;;7.70;;
20038;SDS011;21737;42.868;25.320;2023-08-31T14:24:42;12.43;;;7.87;;
20038;SDS011;21737;42.868;25.320;2023-08-31T14:27:48;10.60;;;7.80;;
20038;SDS011;21737;42.868;25.320;2023-08-31T14:34:03;11.10;;;8.23;;
20038;SDS011;21737;42.868;25.320;2023-08-31T14:37:13;11.97;;;7.23;;
20038;SDS011;21737;42.868;25.320;2023-08-31T14:40:15;11.13;;;7.00;;
20038;SDS011;21737;42.868;25.320;2023-08-31T14:43:19;9.57;;;5.97;;
20038;SDS011;21737;42.868;25.320;2023-08-31T14:46:22;8.67;;;6.73;;
20038;SDS011;21737;42.868;25.320;2023-08-31T14:49:28;11.73;;;7.67;;
20038;SDS011;21737;42.868;25.320;2023-08-31T14:52:31;10.67;;;7.73;;
20038;SDS011;21737;42.868;25.320;2023-08-31T14:55:34;12.47;;;6.20;;
20038;SDS011;21737;42.868;25.320;2023-08-31T14:58:38;8.70;;;6.20;;
20038;SDS011;21737;42.868;25.320;2023-08-31T15:04:48;10.17;;;5.80;;
20038;SDS011;21737;42.868;25.320;2023-08-31T15:07:54;9.67;;;6.13;;
20038;SDS011;21737;42.868;25.320;2023-08-31T15:14:26;13.07;;;6.60;;
20038;SDS011;21737;42.868;25.320;2023-08-31T15:20:59;10.67;;;5.80;;
20038;SDS011;21737;42.868;25.320;2023-08-31T15:24:02;9.10;;;5.43;;
20038;SDS011;21737;42.868;25.320;2023-08-31T15:27:04;10.00;;;5.83;;
20038;SDS011;21737;42.868;25.320;2023-08-31T15:33:12;9.60;;;5.53;;
20038;SDS011;21737;42.868;25.320;2023-08-31T15:36:22;7.87;;;6.20;;
20038;SDS011;21737;42.868;25.320;2023-08-31T15:39:26;8.80;;;5.90;;
20038;SDS011;21737;42.868;25.320;2023-08-31T15:42:34;11.30;;;7.10;;
20038;SDS011;21737;42.868;25.320;2023-08-31T15:45:40;11.03;;;6.27;;
20038;SDS011;21737;42.868;25.320;2023-08-31T15:48:48;8.83;;;5.77;;
20038;SDS011;21737;42.868;25.320;2023-08-31T15:51:50;19.63;;;16.43;;
20038;SDS011;21737;42.868;25.320;2023-08-31T15:55:00;9.23;;;7.13;;
20038;SDS011;21737;42.868;25.320;2023-08-31T15:58:02;10.90;;;7.70;;
20038;SDS011;21737;42.868;25.320;2023-08-31T16:01:11;13.07;;;9.50;;
20038;SDS011;21737;42.868;25.320;2023-08-31T16:04:18;11.30;;;7.37;;
20038;SDS011;21737;42.868;25.320;2023-08-31T16:07:20;10.03;;;7.40;;
20038;SDS011;21737;42.868;25.320;2023-08-31T16:10:24;10.27;;;6.87;;
20038;SDS011;21737;42.868;25.320;2023-08-31T16:13:26;12.83;;;7.07;;
20038;SDS011;21737;42.868;25.320;2023-08-31T16:16:30;11.37;;;9.40;;
20038;SDS011;21737;42.868;25.320;2023-08-31T16:19:32;13.63;;;7.10;;
20038;SDS011;21737;42.868;25.320;2023-08-31T16:22:34;10.63;;;8.03;;
20038;SDS011;21737;42.868;25.320;2023-08-31T16:25:37;10.63;;;7.30;;
20038;SDS011;21737;42.868;25.320;2023-08-31T16:28:40;9.53;;;7.40;;
20038;SDS011;21737;42.868;25.320;2023-08-31T16:31:42;8.80;;;6.90;;
20038;SDS011;21737;42.868;25.320;2023-08-31T16:34:50;9.20;;;7.07;;
20038;SDS011;21737;42.868;25.320;2023-08-31T16:38:04;10.77;;;7.30;;
20038;SDS011;21737;42.868;25.320;2023-08-31T16:41:06;8.90;;;6.93;;
20038;SDS011;21737;42.868;25.320;2023-08-31T16:44:09;11.53;;;6.97;;
20038;SDS011;21737;42.868;25.320;2023-08-31T16:47:14;8.80;;;6.93;;
20038;SDS011;21737;42.868;25.320;2023-08-31T16:53:41;13.10;;;7.37;;
20038;SDS011;21737;42.868;25.320;2023-08-31T16:56:43;12.67;;;7.40;;
20038;SDS011;21737;42.868;25.320;2023-08-31T16:59:46;9.50;;;6.30;;
20038;SDS011;21737;42.868;25.320;2023-08-31T17:02:50;9.40;;;5.87;;
20038;SDS011;21737;42.868;25.320;2023-08-31T17:05:54;9.17;;;6.07;;
20038;SDS011;21737;42.868;25.320;2023-08-31T17:09:05;9.50;;;6.00;;
20038;SDS011;21737;42.868;25.320;2023-08-31T17:12:15;8.53;;;5.63;;
20038;SDS011;21737;42.868;25.320;2023-08-31T17:15:21;9.13;;;7.17;;
20038;SDS011;21737;42.868;25.320;2023-08-31T17:18:24;9.83;;;5.60;;
20038;SDS011;21737;42.868;25.320;2023-08-31T17:21:50;8.87;;;5.73;;
20038;SDS011;21737;42.868;25.320;2023-08-31T17:28:28;10.30;;;6.77;;
20038;SDS011;21737;42.868;25.320;2023-08-31T17:31:31;11.27;;;7.10;;
20038;SDS011;21737;42.868;25.320;2023-08-31T17:34:37;10.50;;;7.60;;
20038;SDS011;21737;42.868;25.320;2023-08-31T17:37:39;8.67;;;6.03;;
20038;SDS011;21737;42.868;25.320;2023-08-31T17:40:45;8.13;;;5.30;;
20038;SDS011;21737;42.868;25.320;2023-08-31T17:43:51;7.30;;;5.07;;
20038;SDS011;21737;42.868;25.320;2023-08-31T17:46:55;6.90;;;4.80;;
20038;SDS011;21737;42.868;25.320;2023-08-31T17:49:58;8.63;;;6.00;;
20038;SDS011;21737;42.868;25.320;2023-08-31T17:53:01;10.57;;;6.53;;
20038;SDS011;21737;42.868;25.320;2023-08-31T17:56:03;10.07;;;6.30;;
20038;SDS011;21737;42.868;25.320;2023-08-31T17:59:05;14.37;;;6.27;;
20038;SDS011;21737;42.868;25.320;2023-08-31T18:02:14;8.13;;;6.20;;
20038;SDS011;21737;42.868;25.320;2023-08-31T18:05:18;9.00;;;5.73;;
20038;SDS011;21737;42.868;25.320;2023-08-31T18:08:23;10.07;;;5.50;;
20038;SDS011;21737;42.868;25.320;2023-08-31T18:11:29;13.70;;;5.87;;
20038;SDS011;21737;42.868;25.320;2023-08-31T18:14:34;12.07;;;7.97;;
20038;SDS011;21737;42.868;25.320;2023-08-31T18:17:39;11.20;;;6.10;;
20038;SDS011;21737;42.868;25.320;2023-08-31T18:20:42;11.23;;;5.60;;
20038;SDS011;21737;42.868;25.320;2023-08-31T18:23:45;9.87;;;7.30;;
20038;SDS011;21737;42.868;25.320;2023-08-31T18:26:55;10.60;;;6.50;;
20038;SDS011;21737;42.868;25.320;2023-08-31T18:30:03;7.87;;;5.90;;
20038;SDS011;21737;42.868;25.320;2023-08-31T18:33:06;8.77;;;5.97;;
20038;SDS011;21737;42.868;25.320;2023-08-31T18:36:09;10.63;;;6.10;;
20038;SDS011;21737;42.868;25.320;2023-08-31T18:39:11;7.80;;;5.20;;
20038;SDS011;21737;42.868;25.320;2023-08-31T18:42:13;7.70;;;5.17;;
20038;SDS011;21737;42.868;25.320;2023-08-31T18:45:16;9.10;;;5.50;;
20038;SDS011;21737;42.868;25.320;2023-08-31T18:48:20;11.27;;;6.00;;
20038;SDS011;21737;42.868;25.320;2023-08-31T18:51:22;12.47;;;6.20;;
20038;SDS011;21737;42.868;25.320;2023-08-31T18:54:25;9.93;;;5.80;;
20038;SDS011;21737;42.868;25.320;2023-08-31T18:57:29;9.53;;;5.97;;
20038;SDS011;21737;42.868;25.320;2023-08-31T19:00:32;7.10;;;5.60;;
20038;SDS011;21737;42.868;25.320;2023-08-31T19:03:37;9.83;;;5.43;;
20038;SDS011;21737;42.868;25.320;2023-08-31T19:06:42;6.33;;;5.07;;
20038;SDS011;21737;42.868;25.320;2023-08-31T19:09:45;9.50;;;6.33;;
20038;SDS011;21737;42.868;25.320;2023-08-31T19:13:03;10.73;;;6.33;;
20038;SDS011;21737;42.868;25.320;2023-08-31T19:16:09;7.80;;;5.57;;
20038;SDS011;21737;42.868;25.320;2023-08-31T19:19:15;8.40;;;5.27;;
20038;SDS011;21737;42.868;25.320;2023-08-31T19:22:18;8.27;;;5.93;;
20038;SDS011;21737;42.868;25.320;2023-08-31T19:25:20;7.53;;;5.90;;
20038;SDS011;21737;42.868;25.320;2023-08-31T19:28:23;12.47;;;6.47;;
20038;SDS011;21737;42.868;25.320;2023-08-31T19:31:25;10.00;;;5.17;;
20038;SDS011;21737;42.868;25.320;2023-08-31T19:34:29;11.93;;;6.37;;
20038;SDS011;21737;42.868;25.320;2023-08-31T19:37:35;6.97;;;4.77;;
20038;SDS011;21737;42.868;25.320;2023-08-31T19:40:39;10.47;;;7.63;;
20038;SDS011;21737;42.868;25.320;2023-08-31T19:43:42;9.57;;;4.40;;
20038;SDS011;21737;42.868;25.320;2023-08-31T19:46:45;9.70;;;4.17;;
20038;SDS011;21737;42.868;25.320;2023-08-31T19:49:50;8.03;;;4.40;;
20038;SDS011;21737;42.868;25.320;2023-08-31T19:52:55;6.33;;;4.10;;
20038;SDS011;21737;42.868;25.320;2023-08-31T19:56:06;8.67;;;4.37;;
20038;SDS011;21737;42.868;25.320;2023-08-31T19:59:14;6.93;;;4.20;;
20038;SDS011;21737;42.868;25.320;2023-08-31T20:02:17;7.20;;;4.27;;